Time;durP1;ratioP1;P1;durP2;ratioP2;P2;SDS_P1;SDS_P2;PMS_P1;PMS_P2;Temp;Humidity;BMP_temperature;BMP_pressure;BME280_temperature;BME280_humidity;BME280_pressure;Samples;Min_cycle;Max_cycle;Signal;HPM_P1;HPM_P2
2022/11/19 00:01:19;;;;;;;18.57;14.83;;;;;;;;;;5094920;28;20728;-79
2022/11/19 00:03:46;;;;;;;22.33;15.83;;;;;;;;;;5095147;28;20199;-79
2022/11/19 00:06:14;;;;;;;23.77;16.33;;;;;;;;;;5096168;28;20202;-78
2022/11/19 00:08:43;;;;;;;24.23;15.70;;;;;;;;;;5105186;28;20196;-79
2022/11/19 00:11:11;;;;;;;21.70;16.27;;;;;;;;;;5081903;28;20316;-79
2022/11/19 00:13:38;;;;;;;22.57;15.37;;;;;;;;;;5107931;28;20311;-79
2022/11/19 00:16:06;;;;;;;24.17;18.90;;;;;;;;;;5114357;28;20667;-79
2022/11/19 00:18:33;;;;;;;27.77;20.70;;;;;;;;;;5096807;28;20230;-79
2022/11/19 00:21:04;;;;;;;27.20;19.87;;;;;;;;;;5114878;28;20316;-79
2022/11/19 00:23:32;;;;;;;28.37;18.73;;;;;;;;;;5115233;28;20609;-79
2022/11/19 00:26:05;;;;;;;26.10;18.10;;;;;;;;;;5114956;28;20229;-79
2022/11/19 00:28:32;;;;;;;22.00;15.93;;;;;;;;;;5107193;28;20232;-79
2022/11/19 00:31:03;;;;;;;21.47;15.07;;;;;;;;;;5111451;28;20278;-79
2022/11/19 00:33:31;;;;;;;21.67;15.20;;;;;;;;;;5114737;28;20234;-78
2022/11/19 00:35:58;;;;;;;20.53;15.77;;;;;;;;;;5111659;28;20286;-79
2022/11/19 00:38:26;;;;;;;21.43;15.57;;;;;;;;;;5094273;28;20746;-80
2022/11/19 00:40:53;;;;;;;21.10;16.77;;;;;;;;;;5105204;28;20284;-79
2022/11/19 00:46:07;;;;;;;23.67;18.27;;;;;;;;;;5073533;28;20251;-78
2022/11/19 00:48:34;;;;;;;24.17;18.50;;;;;;;;;;5073765;28;20775;-78
2022/11/19 00:51:01;;;;;;;27.10;18.83;;;;;;;;;;5073754;28;20192;-78
2022/11/19 00:53:29;;;;;;;24.23;18.63;;;;;;;;;;5073801;28;20269;-79
2022/11/19 00:55:58;;;;;;;24.10;17.60;;;;;;;;;;5074132;28;20286;-78
2022/11/19 00:58:27;;;;;;;23.73;18.23;;;;;;;;;;5086034;28;20738;-78
2022/11/19 01:00:54;;;;;;;27.53;19.70;;;;;;;;;;5098529;28;20305;-78
2022/11/19 01:03:22;;;;;;;30.00;19.97;;;;;;;;;;5109657;28;20229;-78
2022/11/19 01:05:49;;;;;;;24.17;19.40;;;;;;;;;;5087232;28;20261;-79
2022/11/19 01:08:16;;;;;;;24.67;17.73;;;;;;;;;;5114167;28;20254;-79
2022/11/19 01:10:43;;;;;;;25.03;19.00;;;;;;;;;;5114122;28;20740;-79
2022/11/19 01:15:56;;;;;;;25.80;19.27;;;;;;;;;;5112054;28;20265;-78
2022/11/19 01:18:24;;;;;;;26.33;18.53;;;;;;;;;;5099388;28;20228;-78
2022/11/19 01:20:51;;;;;;;24.30;17.87;;;;;;;;;;5095328;28;20314;-78
2022/11/19 01:23:18;;;;;;;25.70;17.97;;;;;;;;;;5113871;28;20292;-78
2022/11/19 01:25:45;;;;;;;24.10;17.60;;;;;;;;;;5093756;28;20233;-78
2022/11/19 01:28:13;;;;;;;22.97;17.77;;;;;;;;;;5093174;28;20202;-79
2022/11/19 01:30:40;;;;;;;19.90;16.73;;;;;;;;;;5113112;28;20248;-78
2022/11/19 01:33:09;;;;;;;24.47;17.00;;;;;;;;;;5113900;28;20194;-79
2022/11/19 01:35:37;;;;;;;22.10;15.97;;;;;;;;;;5113710;28;20241;-79
2022/11/19 01:38:04;;;;;;;25.07;15.77;;;;;;;;;;5113606;28;20289;-78
2022/11/19 01:40:32;;;;;;;24.17;17.30;;;;;;;;;;5110666;28;20342;-79
2022/11/19 01:43:02;;;;;;;25.53;17.80;;;;;;;;;;5091916;28;20242;-78
2022/11/19 01:45:31;;;;;;;26.00;17.57;;;;;;;;;;5092923;28;20289;-78
2022/11/19 01:48:00;;;;;;;22.53;16.80;;;;;;;;;;5108314;28;20285;-78
2022/11/19 01:50:33;;;;;;;22.00;16.60;;;;;;;;;;5112217;28;20194;-78
2022/11/19 01:53:01;;;;;;;21.17;15.80;;;;;;;;;;5113579;28;20232;-78
2022/11/19 01:55:29;;;;;;;25.40;18.23;;;;;;;;;;5113553;28;20622;-78
2022/11/19 01:57:57;;;;;;;30.00;18.30;;;;;;;;;;5103374;28;20289;-78
2022/11/19 02:00:24;;;;;;;28.90;17.80;;;;;;;;;;5092497;28;20246;-78
2022/11/19 02:02:51;;;;;;;23.13;17.20;;;;;;;;;;5092904;28;20634;-79
2022/11/19 02:05:19;;;;;;;22.57;16.70;;;;;;;;;;5099415;28;20281;-78
2022/11/19 02:07:50;;;;;;;23.53;17.20;;;;;;;;;;5109342;28;20211;-78
2022/11/19 02:10:17;;;;;;;22.63;15.93;;;;;;;;;;5095655;28;20675;-79
2022/11/19 02:12:48;;;;;;;21.00;16.03;;;;;;;;;;5109326;28;20238;-78
2022/11/19 02:15:20;;;;;;;20.63;15.77;;;;;;;;;;5108515;28;20269;-78
2022/11/19 02:17:57;;;;;;;23.27;16.67;;;;;;;;;;5095609;28;20285;-78
2022/11/19 02:20:42;;;;;;;25.13;17.47;;;;;;;;;;5096520;28;20242;-79
2022/11/19 02:23:18;;;;;;;22.93;15.57;;;;;;;;;;5111320;28;20694;-79
2022/11/19 02:25:58;;;;;;;24.70;15.87;;;;;;;;;;5113058;28;20282;-79
2022/11/19 02:28:29;;;;;;;18.97;14.70;;;;;;;;;;5101819;28;20237;-78
2022/11/19 02:31:03;;;;;;;18.83;14.50;;;;;;;;;;5092800;28;20239;-79
2022/11/19 02:33:35;;;;;;;18.80;14.97;;;;;;;;;;5112582;28;20292;-78
2022/11/19 02:36:10;;;;;;;21.80;15.07;;;;;;;;;;5091723;28;20221;-78
2022/11/19 02:38:39;;;;;;;18.97;15.10;;;;;;;;;;5092531;28;20285;-78
2022/11/19 02:41:32;;;;;;;20.43;14.40;;;;;;;;;;5104066;28;20311;-78
2022/11/19 02:44:57;;;;;;;19.43;14.20;;;;;;;;;;5112658;28;20194;-78
2022/11/19 02:46:53;;;;;;;19.30;14.00;;;;;;;;;;5112736;28;20213;-78
2022/11/19 02:49:22;;;;;;;19.07;14.40;;;;;;;;;;5112730;28;20229;-78
2022/11/19 02:51:50;;;;;;;18.37;14.30;;;;;;;;;;5112368;28;20244;-78
2022/11/19 02:54:17;;;;;;;18.13;13.63;;;;;;;;;;5080185;28;20707;-78
2022/11/19 02:56:47;;;;;;;19.93;14.30;;;;;;;;;;5094286;28;20730;-78
2022/11/19 03:04:48;;;;;;;20.40;14.10;;;;;;;;;;5072216;28;20197;-78
2022/11/19 03:07:17;;;;;;;20.37;13.43;;;;;;;;;;5072379;28;20253;-79
2022/11/19 03:09:46;;;;;;;17.07;13.50;;;;;;;;;;5072404;28;20397;-78
2022/11/19 03:12:16;;;;;;;19.23;14.00;;;;;;;;;;5075469;28;20210;-78
2022/11/19 03:17:42;;;;;;;20.57;14.97;;;;;;;;;;5095921;28;20557;-78
2022/11/19 03:20:14;;;;;;;21.37;14.17;;;;;;;;;;5093592;28;20249;-78
2022/11/19 03:22:46;;;;;;;18.63;14.00;;;;;;;;;;5084981;28;20238;-78
2022/11/19 03:25:17;;;;;;;21.03;15.77;;;;;;;;;;5097181;28;20286;-78
2022/11/19 03:27:46;;;;;;;23.47;16.53;;;;;;;;;;5103904;28;20222;-78
2022/11/19 03:30:13;;;;;;;20.63;15.63;;;;;;;;;;5110883;28;20253;-78
2022/11/19 03:32:45;;;;;;;19.30;14.60;;;;;;;;;;5092266;28;20781;-78
2022/11/19 03:35:15;;;;;;;20.37;14.90;;;;;;;;;;5113688;28;20229;-78
2022/11/19 03:37:43;;;;;;;19.77;15.23;;;;;;;;;;5115810;28;20749;-78
2022/11/19 03:40:12;;;;;;;21.40;14.90;;;;;;;;;;5099368;28;20262;-79
2022/11/19 03:42:39;;;;;;;23.97;17.10;;;;;;;;;;5112222;28;20236;-78
2022/11/19 03:45:11;;;;;;;25.70;17.43;;;;;;;;;;5111862;28;20230;-80
2022/11/19 03:47:41;;;;;;;21.80;16.30;;;;;;;;;;5079014;28;20278;-79
2022/11/19 03:50:14;;;;;;;26.47;17.20;;;;;;;;;;5112318;28;20218;-79
2022/11/19 03:52:43;;;;;;;24.30;17.23;;;;;;;;;;5095202;28;20244;-79
2022/11/19 03:55:10;;;;;;;23.57;16.57;;;;;;;;;;5094691;28;20237;-79
2022/11/19 03:57:37;;;;;;;23.70;15.97;;;;;;;;;;5095234;28;20237;-79
2022/11/19 04:00:05;;;;;;;19.57;14.73;;;;;;;;;;5094707;28;20224;-79
2022/11/19 04:02:33;;;;;;;21.40;15.57;;;;;;;;;;5096768;28;20241;-79
2022/11/19 04:05:00;;;;;;;21.00;15.27;;;;;;;;;;5094815;28;20199;-79
2022/11/19 04:07:28;;;;;;;22.73;16.37;;;;;;;;;;5094829;28;20294;-79
2022/11/19 04:09:56;;;;;;;25.50;17.33;;;;;;;;;;5094798;28;20274;-79
2022/11/19 04:12:24;;;;;;;22.80;16.23;;;;;;;;;;5094670;28;20280;-79
2022/11/19 04:14:51;;;;;;;27.07;18.53;;;;;;;;;;5094995;28;20289;-79
2022/11/19 04:17:19;;;;;;;23.60;16.33;;;;;;;;;;5095063;28;20233;-78
2022/11/19 04:19:46;;;;;;;22.50;15.67;;;;;;;;;;5095078;28;20289;-77
2022/11/19 04:22:14;;;;;;;22.07;15.70;;;;;;;;;;5100723;28;20301;-80
2022/11/19 04:24:42;;;;;;;18.37;13.87;;;;;;;;;;5115381;28;20631;-80
2022/11/19 04:27:09;;;;;;;19.13;14.40;;;;;;;;;;5115156;28;20201;-79
2022/11/19 04:29:38;;;;;;;23.07;15.57;;;;;;;;;;5113489;28;20224;-80
2022/11/19 04:32:05;;;;;;;22.10;15.40;;;;;;;;;;5115244;28;20228;-79
2022/11/19 04:34:33;;;;;;;17.20;13.60;;;;;;;;;;5104850;28;20670;-80
2022/11/19 04:37:00;;;;;;;17.10;13.07;;;;;;;;;;5093947;28;20236;-78
2022/11/19 04:39:27;;;;;;;15.97;12.63;;;;;;;;;;5094633;28;20288;-79
2022/11/19 04:41:55;;;;;;;17.17;12.60;;;;;;;;;;5106248;28;20333;-79
2022/11/19 04:44:23;;;;;;;17.73;13.80;;;;;;;;;;5114531;28;20292;-79
2022/11/19 04:46:50;;;;;;;18.30;14.13;;;;;;;;;;5114944;28;20229;-79
2022/11/19 04:49:17;;;;;;;18.20;14.17;;;;;;;;;;5114453;28;20743;-79
2022/11/19 04:51:44;;;;;;;17.30;13.37;;;;;;;;;;5095734;28;20285;-79
2022/11/19 04:54:12;;;;;;;19.70;13.00;;;;;;;;;;5089307;28;20293;-78
2022/11/19 04:56:39;;;;;;;16.60;12.70;;;;;;;;;;5100620;28;20204;-79
2022/11/19 04:59:08;;;;;;;20.90;13.40;;;;;;;;;;5089342;28;20240;-79
2022/11/19 05:01:35;;;;;;;16.50;12.40;;;;;;;;;;5094121;28;20305;-79
2022/11/19 05:04:02;;;;;;;18.80;13.17;;;;;;;;;;5105064;28;20283;-78
2022/11/19 05:06:30;;;;;;;17.73;12.60;;;;;;;;;;5113837;28;20263;-79
2022/11/19 05:08:57;;;;;;;15.73;12.07;;;;;;;;;;5105864;28;20284;-78
2022/11/19 05:11:24;;;;;;;18.30;13.37;;;;;;;;;;5113770;28;20413;-79
2022/11/19 05:13:51;;;;;;;17.83;13.67;;;;;;;;;;5096598;28;20287;-79
2022/11/19 05:16:20;;;;;;;17.10;13.00;;;;;;;;;;5093543;28;20284;-79
2022/11/19 05:18:47;;;;;;;17.20;12.93;;;;;;;;;;5093978;28;20285;-79
2022/11/19 05:21:14;;;;;;;17.83;13.70;;;;;;;;;;5093502;28;20607;-79
2022/11/19 05:23:41;;;;;;;19.30;13.10;;;;;;;;;;5101410;28;20285;-79
2022/11/19 05:26:09;;;;;;;15.93;12.33;;;;;;;;;;5095603;28;20214;-79
2022/11/19 05:28:36;;;;;;;18.73;12.83;;;;;;;;;;5093421;28;20304;-78
2022/11/19 05:31:03;;;;;;;15.87;12.43;;;;;;;;;;5105803;28;20276;-78
2022/11/19 05:33:32;;;;;;;18.90;13.93;;;;;;;;;;5092695;28;20208;-78
2022/11/19 05:35:59;;;;;;;18.53;13.73;;;;;;;;;;5093191;28;20237;-78
2022/11/19 05:38:26;;;;;;;15.93;13.50;;;;;;;;;;5093526;28;20236;-79
2022/11/19 05:40:54;;;;;;;16.13;12.43;;;;;;;;;;5092170;28;20307;-78
2022/11/19 05:43:21;;;;;;;17.80;12.33;;;;;;;;;;5092627;28;20331;-79
2022/11/19 05:45:48;;;;;;;17.07;13.00;;;;;;;;;;5093393;28;20201;-79
2022/11/19 05:48:15;;;;;;;14.33;11.63;;;;;;;;;;5093217;28;20289;-79
2022/11/19 05:50:44;;;;;;;13.67;11.60;;;;;;;;;;5092812;28;20267;-79
2022/11/19 05:53:13;;;;;;;14.17;12.13;;;;;;;;;;5093695;28;20283;-79
2022/11/19 05:55:40;;;;;;;14.60;11.67;;;;;;;;;;5093092;28;20201;-78
2022/11/19 05:58:07;;;;;;;17.37;12.17;;;;;;;;;;5096155;28;20291;-78
2022/11/19 06:00:34;;;;;;;14.73;11.90;;;;;;;;;;5096139;28;20292;-79
2022/11/19 06:03:01;;;;;;;15.20;11.47;;;;;;;;;;5092520;28;20240;-79
2022/11/19 06:05:29;;;;;;;15.07;11.40;;;;;;;;;;5092654;28;20791;-79
2022/11/19 06:07:57;;;;;;;15.80;12.40;;;;;;;;;;5092612;28;20689;-78
2022/11/19 06:10:24;;;;;;;13.03;10.40;;;;;;;;;;5092574;28;20326;-78
2022/11/19 06:12:52;;;;;;;14.27;11.77;;;;;;;;;;5092744;28;20300;-78
2022/11/19 06:15:19;;;;;;;15.70;11.97;;;;;;;;;;5101272;28;20693;-78
2022/11/19 06:17:46;;;;;;;14.20;11.37;;;;;;;;;;5113069;28;20638;-79
2022/11/19 06:20:13;;;;;;;15.50;11.90;;;;;;;;;;5103705;28;20603;-79
2022/11/19 06:22:41;;;;;;;15.03;11.20;;;;;;;;;;5092540;28;20315;-79
2022/11/19 06:25:10;;;;;;;14.23;10.87;;;;;;;;;;5108233;28;20287;-78
2022/11/19 06:27:37;;;;;;;12.90;10.67;;;;;;;;;;5102638;28;20290;-78
2022/11/19 06:30:05;;;;;;;13.77;11.70;;;;;;;;;;5092259;28;20692;-79
2022/11/19 06:32:32;;;;;;;13.53;10.63;;;;;;;;;;5092507;28;20227;-78
2022/11/19 06:34:59;;;;;;;12.83;11.03;;;;;;;;;;5092707;28;20255;-78
2022/11/19 06:37:27;;;;;;;14.17;11.07;;;;;;;;;;5092689;28;20238;-78
2022/11/19 06:39:54;;;;;;;14.70;11.80;;;;;;;;;;5092591;28;20289;-78
2022/11/19 06:42:38;;;;;;;14.07;10.93;;;;;;;;;;5091858;28;20323;-78
2022/11/19 06:45:06;;;;;;;14.57;11.13;;;;;;;;;;5101313;28;20238;-78
2022/11/19 06:47:33;;;;;;;14.60;11.00;;;;;;;;;;5095988;28;20737;-78
2022/11/19 06:50:01;;;;;;;17.50;12.03;;;;;;;;;;5096972;28;20230;-79
2022/11/19 06:52:28;;;;;;;13.10;10.50;;;;;;;;;;5096652;28;20229;-79
2022/11/19 06:54:55;;;;;;;14.63;11.23;;;;;;;;;;5093140;28;20284;-78
2022/11/19 06:57:24;;;;;;;13.70;10.80;;;;;;;;;;5091548;28;20226;-79
2022/11/19 06:59:51;;;;;;;14.20;10.23;;;;;;;;;;5096568;28;20696;-79
2022/11/19 07:02:18;;;;;;;14.90;11.00;;;;;;;;;;5096107;28;20773;-79
2022/11/19 07:04:52;;;;;;;14.57;11.43;;;;;;;;;;5096220;28;20711;-78
2022/11/19 07:07:19;;;;;;;13.43;10.80;;;;;;;;;;5096524;28;20230;-79
2022/11/19 07:09:46;;;;;;;11.33;9.73;;;;;;;;;;5095984;28;20311;-78
2022/11/19 07:12:13;;;;;;;13.60;10.83;;;;;;;;;;5096342;28;20230;-78
2022/11/19 07:14:42;;;;;;;15.60;11.77;;;;;;;;;;5095717;28;20231;-78
2022/11/19 07:17:09;;;;;;;19.07;12.80;;;;;;;;;;5095687;28;20239;-78
2022/11/19 07:19:36;;;;;;;15.57;12.53;;;;;;;;;;5086532;28;20284;-78
2022/11/19 07:22:03;;;;;;;14.53;11.73;;;;;;;;;;5075751;28;20312;-78
2022/11/19 07:24:31;;;;;;;15.53;12.03;;;;;;;;;;5106664;28;20637;-79
2022/11/19 07:26:58;;;;;;;16.10;12.23;;;;;;;;;;5096764;28;20234;-78
2022/11/19 07:29:25;;;;;;;15.40;11.80;;;;;;;;;;5110555;28;20226;-79
2022/11/19 07:31:53;;;;;;;18.20;13.30;;;;;;;;;;5115404;28;20283;-78
2022/11/19 07:34:21;;;;;;;17.80;12.10;;;;;;;;;;5100821;28;20237;-78
2022/11/19 07:36:49;;;;;;;17.67;13.47;;;;;;;;;;5096039;28;20196;-78
2022/11/19 07:39:16;;;;;;;16.97;12.50;;;;;;;;;;5096493;28;20280;-78
2022/11/19 07:44:28;;;;;;;19.80;14.93;;;;;;;;;;5075060;28;20201;-79
2022/11/19 07:46:57;;;;;;;18.90;14.93;;;;;;;;;;5104314;28;20679;-79
2022/11/19 07:49:24;;;;;;;23.73;18.20;;;;;;;;;;5106468;28;20284;-79
2022/11/19 07:51:52;;;;;;;21.90;16.73;;;;;;;;;;5097224;28;20256;-78
2022/11/19 07:54:22;;;;;;;24.87;17.97;;;;;;;;;;5091945;28;20226;-78
2022/11/19 07:56:53;;;;;;;24.07;19.30;;;;;;;;;;5087414;28;20230;-79
2022/11/19 07:59:21;;;;;;;23.57;17.67;;;;;;;;;;5097849;28;20232;-79
2022/11/19 08:01:49;;;;;;;30.17;23.53;;;;;;;;;;5098433;28;20310;-79
2022/11/19 08:04:17;;;;;;;26.97;20.80;;;;;;;;;;5095098;28;20336;-80
2022/11/19 08:06:44;;;;;;;24.03;19.47;;;;;;;;;;5095083;28;20238;-79
2022/11/19 08:09:12;;;;;;;42.50;35.70;;;;;;;;;;5094696;28;20780;-79
2022/11/19 08:11:39;;;;;;;42.40;37.03;;;;;;;;;;5098092;28;20257;-79
2022/11/19 08:14:06;;;;;;;23.77;20.20;;;;;;;;;;5098211;28;20684;-79
2022/11/19 08:19:23;;;;;;;9.23;7.90;;;;;;;;;;5094639;28;20653;-79
2022/11/19 08:21:51;;;;;;;10.00;7.63;;;;;;;;;;5104013;28;20804;-80
2022/11/19 08:24:19;;;;;;;11.17;9.47;;;;;;;;;;5094851;28;20234;-79
2022/11/19 08:26:46;;;;;;;9.47;8.50;;;;;;;;;;5095755;28;20202;-81
2022/11/19 08:29:14;;;;;;;10.67;9.57;;;;;;;;;;5107522;28;20634;-80
2022/11/19 08:31:41;;;;;;;10.80;9.53;;;;;;;;;;5114852;28;20228;-81
2022/11/19 08:34:09;;;;;;;10.60;9.50;;;;;;;;;;5106137;28;20229;-81
2022/11/19 08:36:37;;;;;;;11.07;9.80;;;;;;;;;;5094271;28;20281;-79
2022/11/19 08:39:05;;;;;;;17.63;14.27;;;;;;;;;;5094449;28;20198;-79
2022/11/19 08:44:18;;;;;;;10.97;9.87;;;;;;;;;;5093986;28;20216;-79
2022/11/19 08:46:45;;;;;;;10.97;9.87;;;;;;;;;;5094167;28;20253;-79
2022/11/19 08:49:13;;;;;;;10.70;9.70;;;;;;;;;;5096082;28;20251;-79
2022/11/19 08:51:41;;;;;;;10.23;9.00;;;;;;;;;;5100809;28;20256;-79
2022/11/19 08:54:08;;;;;;;10.80;8.80;;;;;;;;;;5094209;28;20241;-79
2022/11/19 08:56:36;;;;;;;9.73;8.57;;;;;;;;;;5094176;28;20245;-79
2022/11/19 08:59:03;;;;;;;10.67;8.93;;;;;;;;;;5093680;28;20286;-79
2022/11/19 09:01:30;;;;;;;11.13;10.03;;;;;;;;;;5093858;28;20267;-80
2022/11/19 09:03:58;;;;;;;9.10;8.20;;;;;;;;;;5094293;28;20281;-80
2022/11/19 09:06:25;;;;;;;10.23;8.30;;;;;;;;;;5093310;28;20387;-79
2022/11/19 09:08:53;;;;;;;10.30;9.03;;;;;;;;;;5110092;28;20237;-79
2022/11/19 09:11:21;;;;;;;11.50;10.30;;;;;;;;;;5091906;28;20266;-78
2022/11/19 09:13:48;;;;;;;13.60;12.20;;;;;;;;;;5093026;28;20733;-78
2022/11/19 09:16:16;;;;;;;13.40;12.07;;;;;;;;;;5095931;28;20229;-79
2022/11/19 09:18:43;;;;;;;14.77;11.80;;;;;;;;;;5103251;28;20234;-79
2022/11/19 09:21:11;;;;;;;17.53;15.77;;;;;;;;;;5102446;28;20231;-79
2022/11/19 09:23:40;;;;;;;22.13;19.93;;;;;;;;;;5101514;28;20257;-79
2022/11/19 09:26:09;;;;;;;26.67;23.87;;;;;;;;;;5092788;28;20202;-79
2022/11/19 09:28:36;;;;;;;26.53;21.37;;;;;;;;;;5093393;28;20222;-78
2022/11/19 09:31:04;;;;;;;21.33;18.27;;;;;;;;;;5093962;28;20290;-79
2022/11/19 09:33:33;;;;;;;16.03;13.93;;;;;;;;;;5092165;28;20221;-79
2022/11/19 09:36:00;;;;;;;6.83;5.40;;;;;;;;;;5089991;28;20242;-79
2022/11/19 09:38:30;;;;;;;8.77;6.97;;;;;;;;;;5096913;28;20278;-78
2022/11/19 09:40:58;;;;;;;19.03;17.07;;;;;;;;;;5091780;28;20205;-79
2022/11/19 09:43:31;;;;;;;19.00;17.00;;;;;;;;;;5098362;28;20266;-79
2022/11/19 09:46:01;;;;;;;18.80;15.27;;;;;;;;;;5096372;28;20237;-80
2022/11/19 09:48:33;;;;;;;12.27;10.53;;;;;;;;;;5094852;28;20217;-79
2022/11/19 09:51:02;;;;;;;10.23;5.93;;;;;;;;;;5091258;28;20202;-79
2022/11/19 09:53:31;;;;;;;6.80;3.37;;;;;;;;;;5092446;28;20194;-80
2022/11/19 09:56:00;;;;;;;6.73;5.10;;;;;;;;;;5091757;28;20222;-80
2022/11/19 09:58:32;;;;;;;9.60;7.07;;;;;;;;;;5106545;28;20229;-80
2022/11/19 10:01:00;;;;;;;10.80;8.13;;;;;;;;;;5089593;28;20280;-80
2022/11/19 10:03:28;;;;;;;11.65;9.75;;;;;;;;;;5095290;28;20247;-80
2022/11/19 10:06:00;;;;;;;13.18;8.75;;;;;;;;;;5112405;28;20204;-80
2022/11/19 10:08:33;;;;;;;11.80;7.60;;;;;;;;;;5098459;28;20218;-82
2022/11/19 10:11:06;;;;;;;10.98;4.55;;;;;;;;;;5106404;28;20249;-81
2022/11/19 10:13:44;;;;;;;7.82;3.60;;;;;;;;;;5100480;28;20221;-80
2022/11/19 10:16:24;;;;;;;6.13;4.00;;;;;;;;;;5100674;28;20193;-80
2022/11/19 10:18:56;;;;;;;6.40;3.85;;;;;;;;;;5089176;28;20248;-80
2022/11/19 10:21:27;;;;;;;5.95;3.72;;;;;;;;;;5098918;28;20711;-80
2022/11/19 10:23:59;;;;;;;4.55;3.53;;;;;;;;;;5098043;28;20342;-80
2022/11/19 10:26:32;;;;;;;5.72;3.65;;;;;;;;;;5098589;28;20328;-80
2022/11/19 10:29:02;;;;;;;7.03;4.18;;;;;;;;;;5105154;28;20308;-81
2022/11/19 10:31:33;;;;;;;6.55;4.07;;;;;;;;;;5095699;28;20246;-80
2022/11/19 10:34:05;;;;;;;6.40;4.45;;;;;;;;;;5103697;28;20197;-80
2022/11/19 10:36:34;;;;;;;7.60;4.70;;;;;;;;;;5091620;28;20207;-81
2022/11/19 10:39:03;;;;;;;8.02;4.40;;;;;;;;;;5101608;28;20225;-81
2022/11/19 10:41:34;;;;;;;8.60;3.55;;;;;;;;;;5090247;28;20289;-80
2022/11/19 10:44:36;;;;;;;5.85;3.45;;;;;;;;;;5098557;28;20260;-81
2022/11/19 10:47:03;;;;;;;10.57;3.90;;;;;;;;;;5095663;28;20201;-80
2022/11/19 10:49:30;;;;;;;8.50;4.55;;;;;;;;;;5093483;28;20256;-80
2022/11/19 10:51:58;;;;;;;7.10;3.67;;;;;;;;;;5084551;28;20273;-81
2022/11/19 10:54:27;;;;;;;6.43;3.22;;;;;;;;;;5095296;28;20201;-81
2022/11/19 10:56:56;;;;;;;6.45;3.15;;;;;;;;;;5106783;28;20285;-81
2022/11/19 10:59:25;;;;;;;6.28;2.80;;;;;;;;;;5097741;28;20361;-81
2022/11/19 11:01:56;;;;;;;6.22;2.55;;;;;;;;;;5100488;28;20381;-82
2022/11/19 11:04:24;;;;;;;8.02;3.35;;;;;;;;;;5105082;28;20286;-81
2022/11/19 11:06:53;;;;;;;5.78;2.60;;;;;;;;;;5092080;28;20194;-81
2022/11/19 11:09:33;;;;;;;6.05;2.65;;;;;;;;;;5090619;28;20195;-81
2022/11/19 11:14:53;;;;;;;5.22;2.90;;;;;;;;;;5073391;28;20209;-82
2022/11/19 11:17:22;;;;;;;4.90;2.72;;;;;;;;;;5069103;28;20198;-80
2022/11/19 11:19:56;;;;;;;6.53;2.38;;;;;;;;;;5074899;28;20665;-79
2022/11/19 11:22:23;;;;;;;4.95;2.10;;;;;;;;;;5071693;28;20276;-80
2022/11/19 11:24:51;;;;;;;6.50;2.50;;;;;;;;;;5076792;28;20293;-79
2022/11/19 11:27:19;;;;;;;6.93;2.13;;;;;;;;;;5078548;28;20202;-79
2022/11/19 11:29:48;;;;;;;5.32;1.77;;;;;;;;;;5077914;28;20306;-79
2022/11/19 11:32:27;;;;;;;5.25;1.60;;;;;;;;;;5081090;28;20286;-79
2022/11/19 11:34:54;;;;;;;3.05;1.30;;;;;;;;;;5077542;28;20206;-79
2022/11/19 11:37:22;;;;;;;4.55;1.30;;;;;;;;;;5083317;28;20679;-80
2022/11/19 11:39:50;;;;;;;3.25;1.35;;;;;;;;;;5085873;28;20226;-79
2022/11/19 11:42:18;;;;;;;3.30;1.23;;;;;;;;;;5076599;28;20256;-80
2022/11/19 11:44:51;;;;;;;5.05;1.60;;;;;;;;;;5087536;28;20694;-80
2022/11/19 11:47:19;;;;;;;3.55;1.23;;;;;;;;;;5076797;28;20227;-79
2022/11/19 11:49:48;;;;;;;3.65;1.67;;;;;;;;;;5072822;28;20228;-80
2022/11/19 11:52:21;;;;;;;3.45;1.25;;;;;;;;;;5085932;28;20198;-80
2022/11/19 11:54:55;;;;;;;2.75;1.23;;;;;;;;;;5105915;28;20198;-80
2022/11/19 11:57:23;;;;;;;4.30;1.13;;;;;;;;;;5099616;28;20290;-79
2022/11/19 11:59:52;;;;;;;3.70;1.30;;;;;;;;;;5109960;28;20704;-79
2022/11/19 12:02:21;;;;;;;3.55;1.20;;;;;;;;;;5095085;28;20241;-79
2022/11/19 12:04:49;;;;;;;3.95;1.30;;;;;;;;;;5101881;28;20206;-79
2022/11/19 12:07:21;;;;;;;2.90;1.10;;;;;;;;;;5097317;28;20336;-78
2022/11/19 12:09:52;;;;;;;3.20;1.05;;;;;;;;;;5111191;28;20230;-79
2022/11/19 12:12:26;;;;;;;4.07;0.95;;;;;;;;;;5095055;28;20639;-79
2022/11/19 12:14:58;;;;;;;2.75;0.80;;;;;;;;;;5104224;28;20406;-79
2022/11/19 12:17:34;;;;;;;5.00;1.00;;;;;;;;;;5107173;28;20200;-80
2022/11/19 12:20:13;;;;;;;4.45;1.33;;;;;;;;;;5111536;28;20244;-80
2022/11/19 12:22:46;;;;;;;5.68;1.50;;;;;;;;;;5099802;28;20313;-79
2022/11/19 12:25:26;;;;;;;7.20;1.40;;;;;;;;;;5100341;28;20274;-79
2022/11/19 12:28:06;;;;;;;4.63;1.42;;;;;;;;;;5110953;28;20252;-79
2022/11/19 12:30:38;;;;;;;7.10;1.30;;;;;;;;;;5099773;28;20261;-79
2022/11/19 12:33:13;;;;;;;3.58;1.25;;;;;;;;;;5093329;28;20286;-79
2022/11/19 12:35:50;;;;;;;6.20;1.75;;;;;;;;;;5097247;28;20291;-82
2022/11/19 12:38:35;;;;;;;5.30;1.50;;;;;;;;;;5094666;28;20687;-81
2022/11/19 12:41:11;;;;;;;4.53;1.40;;;;;;;;;;5105404;28;20210;-81
2022/11/19 12:43:47;;;;;;;3.00;0.93;;;;;;;;;;5105217;28;20597;-82
2022/11/19 12:46:20;;;;;;;7.05;1.15;;;;;;;;;;5105990;28;20670;-81
2022/11/19 12:48:56;;;;;;;3.08;1.50;;;;;;;;;;5107047;28;20286;-79
2022/11/19 12:51:28;;;;;;;4.88;1.40;;;;;;;;;;5089461;28;20233;-81
2022/11/19 12:54:03;;;;;;;2.95;1.23;;;;;;;;;;5094424;28;20299;-82
2022/11/19 12:56:36;;;;;;;4.28;1.45;;;;;;;;;;5101377;28;20261;-82
2022/11/19 12:59:22;;;;;;;4.55;1.67;;;;;;;;;;5091461;28;20199;-82
2022/11/19 13:01:53;;;;;;;3.67;1.67;;;;;;;;;;5074452;28;20249;-81
2022/11/19 13:04:24;;;;;;;2.67;1.33;;;;;;;;;;5093442;28;20257;-81
2022/11/19 13:06:54;;;;;;;4.32;1.35;;;;;;;;;;5093391;28;20202;-81
2022/11/19 13:09:25;;;;;;;5.65;1.50;;;;;;;;;;5093011;28;20577;-81
2022/11/19 13:11:55;;;;;;;4.05;1.20;;;;;;;;;;5093477;28;20259;-81
2022/11/19 13:14:27;;;;;;;4.70;1.30;;;;;;;;;;5093116;28;20323;-81
2022/11/19 13:16:56;;;;;;;3.10;1.30;;;;;;;;;;5088712;28;20225;-82
2022/11/19 13:19:25;;;;;;;3.58;1.40;;;;;;;;;;5093269;28;20221;-81
2022/11/19 13:21:55;;;;;;;2.70;1.00;;;;;;;;;;5093858;28;20289;-81
2022/11/19 13:24:26;;;;;;;5.13;1.10;;;;;;;;;;5093459;28;20249;-81
2022/11/19 13:26:57;;;;;;;6.05;1.77;;;;;;;;;;5092085;28;20569;-81
2022/11/19 13:29:41;;;;;;;2.65;1.40;;;;;;;;;;5093446;28;20218;-81
2022/11/19 13:32:16;;;;;;;3.85;1.38;;;;;;;;;;5073143;28;20728;-81
2022/11/19 13:34:48;;;;;;;2.00;0.93;;;;;;;;;;5073084;28;20199;-81
2022/11/19 13:37:17;;;;;;;3.63;1.02;;;;;;;;;;5073516;28;20203;-81
2022/11/19 13:39:47;;;;;;;3.65;0.90;;;;;;;;;;5072860;28;20199;-81
2022/11/19 13:45:01;;;;;;;3.45;1.13;;;;;;;;;;5100003;28;20228;-81
2022/11/19 13:47:33;;;;;;;6.82;1.05;;;;;;;;;;5108988;28;20199;-81
2022/11/19 13:50:01;;;;;;;4.93;1.10;;;;;;;;;;5093029;28;20230;-81
2022/11/19 13:52:30;;;;;;;4.90;1.10;;;;;;;;;;5093578;28;20255;-81
2022/11/19 13:54:59;;;;;;;4.80;0.88;;;;;;;;;;5092702;28;20251;-81
2022/11/19 13:57:28;;;;;;;3.17;1.00;;;;;;;;;;5109815;28;20286;-81
2022/11/19 14:00:00;;;;;;;2.35;0.80;;;;;;;;;;5113617;28;20280;-81
2022/11/19 14:02:46;;;;;;;2.85;0.90;;;;;;;;;;5111557;27;20233;-81
2022/11/19 14:05:28;;;;;;;4.35;1.83;;;;;;;;;;5113597;28;20426;-80
2022/11/19 14:08:08;;;;;;;3.15;1.10;;;;;;;;;;5072905;28;20301;-82
2022/11/19 14:10:38;;;;;;;5.25;1.40;;;;;;;;;;5092389;28;20776;-82
2022/11/19 14:13:23;;;;;;;4.80;1.63;;;;;;;;;;5106459;28;20248;-81
2022/11/19 14:27:39;;;;;;;5.22;1.10;;;;;;;;;;5030702;28;20226;-81
2022/11/19 14:30:10;;;;;;;3.67;0.80;;;;;;;;;;5056683;28;20307;-81
2022/11/19 14:32:39;;;;;;;4.32;1.10;;;;;;;;;;5069198;28;20205;-81
2022/11/19 14:35:25;;;;;;;6.70;1.40;;;;;;;;;;5058481;28;20226;-83
2022/11/19 14:37:55;;;;;;;3.65;1.55;;;;;;;;;;5057842;28;20238;-80
2022/11/19 14:40:24;;;;;;;4.32;1.67;;;;;;;;;;5057385;28;20223;-81
2022/11/19 14:46:21;;;;;;;3.00;1.07;;;;;;;;;;5010507;28;20287;-81
2022/11/19 14:48:50;;;;;;;6.40;1.73;;;;;;;;;;5056114;28;20690;-81
2022/11/19 14:51:19;;;;;;;11.83;5.57;;;;;;;;;;5050727;28;20246;-82
2022/11/19 14:53:50;;;;;;;9.43;5.77;;;;;;;;;;5051547;28;20195;-81
2022/11/19 14:56:20;;;;;;;8.33;5.33;;;;;;;;;;5056476;28;20235;-82
2022/11/19 14:58:51;;;;;;;7.37;4.00;;;;;;;;;;5066008;28;20244;-83
2022/11/19 15:01:19;;;;;;;4.60;2.80;;;;;;;;;;5095194;28;21419;-79
2022/11/19 15:03:49;;;;;;;8.43;1.93;;;;;;;;;;5095770;28;20265;-81
2022/11/19 15:06:17;;;;;;;4.13;1.57;;;;;;;;;;5096874;28;20735;-81
2022/11/19 15:08:50;;;;;;;4.30;1.80;;;;;;;;;;5108047;28;20316;-81
2022/11/19 15:11:18;;;;;;;5.97;1.40;;;;;;;;;;5097775;28;20254;-80
2022/11/19 15:13:45;;;;;;;4.63;1.00;;;;;;;;;;5091151;28;20226;-80
2022/11/19 15:16:15;;;;;;;3.10;1.00;;;;;;;;;;5116638;28;20229;-81
2022/11/19 15:18:55;;;;;;;2.83;1.10;;;;;;;;;;5113115;28;20251;-80
2022/11/19 15:21:49;;;;;;;4.03;1.07;;;;;;;;;;5106348;27;20222;-80
2022/11/19 15:24:22;;;;;;;3.00;0.90;;;;;;;;;;5069764;28;20309;-80